createdAt,value
2024-03-09T00:02:43.625Z,25.77
2024-03-09T00:12:48.921Z,26.43
2024-03-09T00:22:54.162Z,27.23
2024-03-09T00:33:01.408Z,25.33
2024-03-09T00:43:08.230Z,25.13
2024-03-09T00:53:13.105Z,26.27
2024-03-09T01:03:16.694Z,27.50
2024-03-09T01:13:24.063Z,28.60
2024-03-09T01:23:27.214Z,27.37
2024-03-09T01:33:32.717Z,27.87
2024-03-09T01:43:35.924Z,28.80
2024-03-09T01:53:43.780Z,30.43
2024-03-09T02:03:47.394Z,32.77
2024-03-09T02:13:53.938Z,31.50
2024-03-09T02:24:06.793Z,28.87
2024-03-09T02:34:11.577Z,27.97
2024-03-09T02:44:15.285Z,30.13
2024-03-09T02:54:19.875Z,28.83
2024-03-09T03:04:23.174Z,28.13
2024-03-09T03:14:27.713Z,27.97
2024-03-09T03:24:32.837Z,28.20
2024-03-09T03:34:38.594Z,28.23
2024-03-09T03:44:42.985Z,27.43
2024-03-09T03:54:47.492Z,26.00
2024-03-09T04:04:50.655Z,28.03
2024-03-09T04:14:56.130Z,27.47
2024-03-09T04:25:02.682Z,26.80
2024-03-09T04:35:08.239Z,26.67
2024-03-09T04:45:12.087Z,29.40
2024-03-09T04:55:17.250Z,28.60
2024-03-09T05:05:21.475Z,30.57
2024-03-09T05:15:27.353Z,28.83
2024-03-09T05:25:31.827Z,24.67
2024-03-09T05:35:36.882Z,26.43
2024-03-09T05:45:40.893Z,29.17
2024-03-09T05:55:45.523Z,23.43
2024-03-09T06:05:49.698Z,24.53
2024-03-09T06:15:56.336Z,27.17
2024-03-09T06:25:59.684Z,25.17
2024-03-09T06:36:06.310Z,30.20
2024-03-09T06:46:10.210Z,35.20
2024-03-09T06:56:15.308Z,29.43
2024-03-09T07:06:19.505Z,21.07
2024-03-09T07:16:24.305Z,20.80
2024-03-09T07:26:27.467Z,18.33
2024-03-09T07:36:31.965Z,18.63
2024-03-09T07:46:35.335Z,16.20
2024-03-09T07:56:40.406Z,17.17
2024-03-09T08:06:44.464Z,13.53
2024-03-09T08:16:49.040Z,14.57
2024-03-09T08:26:52.211Z,16.53
2024-03-09T08:36:56.681Z,18.37
2024-03-09T08:46:59.894Z,14.83
2024-03-09T08:57:04.742Z,15.50
2024-03-09T09:07:08.094Z,16.17
2024-03-09T09:17:12.812Z,17.27
2024-03-09T09:27:16.046Z,17.00
2024-03-09T09:37:21.564Z,17.47
2024-03-09T09:47:26.804Z,14.60
2024-03-09T09:57:32.596Z,13.93
2024-03-09T10:07:36.026Z,16.20
2024-03-09T10:17:41.286Z,14.40
2024-03-09T10:27:45.297Z,16.53
2024-03-09T10:37:56.512Z,19.77
2024-03-09T10:48:01.875Z,19.80
2024-03-09T10:58:07.838Z,22.83
2024-03-09T11:08:11.786Z,19.10
2024-03-09T11:18:17.127Z,19.63
2024-03-09T11:28:28.578Z,20.03
2024-03-09T11:38:36.540Z,20.33
2024-03-09T11:48:39.695Z,18.73
2024-03-09T11:58:44.269Z,19.60
2024-03-09T12:08:47.520Z,21.10
2024-03-09T12:18:52.621Z,18.93
2024-03-09T12:28:58.405Z,20.93
2024-03-09T12:39:17.525Z,18.60
2024-03-09T12:49:21.432Z,17.83
2024-03-09T12:59:28.261Z,17.07
2024-03-09T13:09:34.542Z,20.00
2024-03-09T13:19:41.413Z,18.67
2024-03-09T13:29:44.703Z,20.53
2024-03-09T13:39:50.527Z,16.40
2024-03-09T13:49:53.965Z,17.23
2024-03-09T13:59:58.766Z,21.47
2024-03-09T14:10:02.054Z,20.57
2024-03-09T14:20:17.425Z,20.20
2024-03-09T14:30:27.826Z,20.27
2024-03-09T14:40:35.608Z,22.63
2024-03-09T14:50:39.305Z,24.63
2024-03-09T15:00:56.884Z,20.90
2024-03-09T15:11:00.764Z,22.50
2024-03-09T15:21:06.510Z,23.77
2024-03-09T15:31:10.959Z,22.23
2024-03-09T15:41:16.911Z,22.23
2024-03-09T15:51:20.627Z,23.00
2024-03-09T16:01:25.222Z,22.93
2024-03-09T16:11:29.741Z,22.43
2024-03-09T16:21:35.866Z,23.70
2024-03-09T16:31:39.340Z,22.10
2024-03-09T16:41:44.964Z,22.33
2024-03-09T16:51:48.201Z,29.07
2024-03-09T17:01:53.387Z,25.27
2024-03-09T17:11:56.911Z,20.47
2024-03-09T17:22:01.491Z,22.13
2024-03-09T17:32:04.845Z,20.53
2024-03-09T17:42:13.775Z,23.27
2024-03-09T17:52:17.043Z,22.90
2024-03-09T18:02:21.615Z,23.80
2024-03-09T18:12:24.905Z,22.87
2024-03-09T18:22:29.949Z,21.40
2024-03-09T18:32:33.168Z,20.93
2024-03-09T18:42:37.718Z,19.43
2024-03-09T18:52:41.001Z,21.17
2024-03-09T19:02:47.934Z,19.50
2024-03-09T19:12:52.725Z,20.43
2024-03-09T19:22:57.935Z,19.60
2024-03-09T19:33:02.244Z,21.30
2024-03-09T19:43:06.927Z,19.20
2024-03-09T19:53:11.618Z,24.30
2024-03-09T20:03:16.423Z,23.33
2024-03-09T20:13:21.031Z,22.47
2024-03-09T20:23:26.193Z,20.23
2024-03-09T20:33:31.100Z,16.53
2024-03-09T20:43:35.700Z,16.70
2024-03-09T20:53:47.876Z,17.63
2024-03-09T21:03:52.576Z,16.03
2024-03-09T21:13:55.828Z,16.13
2024-03-09T21:24:03.052Z,13.97
2024-03-09T21:34:06.506Z,14.57
2024-03-09T21:44:11.465Z,16.03
2024-03-09T21:54:14.966Z,13.87
2024-03-09T22:04:19.445Z,16.13
2024-03-09T22:14:23.497Z,10.93
2024-03-09T22:24:28.230Z,11.60
2024-03-09T22:34:31.517Z,12.23
2024-03-09T22:44:36.883Z,13.00
2024-03-09T22:54:40.019Z,14.63
2024-03-09T23:04:45.025Z,13.73
2024-03-09T23:14:48.211Z,14.23
2024-03-09T23:24:52.696Z,12.90
2024-03-09T23:34:57.169Z,10.67
2024-03-09T23:45:04.634Z,10.47
2024-03-09T23:55:10.278Z,10.30
